createdAt,value
2022-12-11T00:01:15.616Z,100633.53
2022-12-11T00:03:45.292Z,100637.06
2022-12-11T00:06:19.027Z,100643.19
2022-12-11T02:53:40.071Z,100634.97
2022-12-11T03:20:25.633Z,100606.34
2022-12-11T04:06:06.907Z,100612.31
2022-12-11T04:08:50.120Z,100619.22
2022-12-11T04:14:56.336Z,100613.13
2022-12-11T04:21:05.260Z,100625.00
2022-12-11T04:50:44.072Z,100623.59
2022-12-11T08:02:37.180Z,100619.81
2022-12-11T08:05:06.483Z,100622.28
2022-12-11T08:07:36.924Z,100620.63
2022-12-11T08:10:06.116Z,100617.47
2022-12-11T08:12:34.686Z,100620.13
2022-12-11T08:15:03.060Z,100620.06
2022-12-11T08:17:39.687Z,100622.44
2022-12-11T08:20:09.741Z,100627.47
2022-12-11T08:22:39.051Z,100631.31
2022-12-11T08:25:09.239Z,100620.88
2022-12-11T08:27:38.462Z,100616.81
2022-12-11T08:30:07.892Z,100621.09
2022-12-11T08:32:37.826Z,100618.56
2022-12-11T08:35:06.763Z,100617.25
2022-12-11T08:37:35.502Z,100616.13
2022-12-11T08:40:04.284Z,100625.31
2022-12-11T08:42:33.610Z,100620.38
2022-12-11T08:45:06.076Z,100623.31
2022-12-11T08:47:38.945Z,100616.63
2022-12-11T08:50:11.852Z,100616.81
2022-12-11T08:52:42.556Z,100613.53
2022-12-11T08:55:12.850Z,100616.41
2022-12-11T08:57:41.308Z,100616.94
2022-12-11T09:00:13.484Z,100627.84
2022-12-11T09:02:41.625Z,100622.53
2022-12-11T09:05:12.083Z,100615.66
2022-12-11T09:07:41.508Z,100616.16
2022-12-11T09:10:11.046Z,100622.09
2022-12-11T09:12:43.519Z,100618.41
2022-12-11T09:15:12.729Z,100623.00
2022-12-11T09:17:41.326Z,100611.91
2022-12-11T09:20:13.438Z,100618.56
2022-12-11T09:22:43.067Z,100614.28
2022-12-11T09:25:12.734Z,100613.00
2022-12-11T09:27:41.514Z,100617.31
2022-12-11T09:30:11.165Z,100616.34
2022-12-11T09:32:39.956Z,100612.59
2022-12-11T09:35:10.326Z,100616.41
2022-12-11T09:37:40.732Z,100607.44
2022-12-11T09:40:12.568Z,100608.19
2022-12-11T09:42:51.085Z,100606.53
2022-12-11T09:45:19.442Z,100599.97
2022-12-11T09:47:51.392Z,100600.47
2022-12-11T09:50:23.832Z,100599.28
2022-12-11T09:53:06.320Z,100605.63
2022-12-11T09:55:44.617Z,100597.19
2022-12-11T09:58:24.196Z,100601.88
2022-12-11T10:01:00.018Z,100598.66
2022-12-11T10:03:57.573Z,100602.41
2022-12-11T10:06:33.832Z,100595.44
2022-12-11T10:09:21.772Z,100585.44
2022-12-11T10:12:01.266Z,100582.63
2022-12-11T10:14:44.941Z,100591.84
2022-12-11T10:17:20.464Z,100579.34
2022-12-11T10:19:50.058Z,100575.84
2022-12-11T10:22:24.219Z,100570.88
2022-12-11T10:25:14.258Z,100576.28
2022-12-11T10:27:44.789Z,100576.09
2022-12-11T10:30:18.381Z,100571.16
2022-12-11T10:32:53.324Z,100565.97
2022-12-11T10:35:32.677Z,100565.63
2022-12-11T10:38:12.753Z,100564.47
2022-12-11T10:40:46.037Z,100562.84
2022-12-11T10:43:14.304Z,100556.91
2022-12-11T10:45:51.974Z,100561.34
2022-12-11T10:48:22.118Z,100572.06
2022-12-11T10:50:59.874Z,100549.19
2022-12-11T10:53:29.565Z,100559.81
2022-12-11T10:55:59.984Z,100555.44
2022-12-11T10:58:34.416Z,100559.63
2022-12-11T11:01:10.997Z,100546.69
2022-12-11T11:03:52.976Z,100552.47
2022-12-11T11:06:23.762Z,100552.19
2022-12-11T11:08:54.226Z,100546.97
2022-12-11T11:11:33.920Z,100551.25
2022-12-11T11:14:16.250Z,100555.22
2022-12-11T11:16:53.890Z,100553.22
2022-12-11T11:19:26.606Z,100557.59
2022-12-11T11:21:58.799Z,100558.53
2022-12-11T11:24:51.870Z,100555.13
2022-12-11T11:27:33.683Z,100549.16
2022-12-11T11:30:05.709Z,100545.91
2022-12-11T11:32:39.830Z,100549.63
2022-12-11T11:35:31.159Z,100542.91
2022-12-11T11:38:07.048Z,100541.91
2022-12-11T11:40:44.051Z,100529.97
2022-12-11T11:43:20.527Z,100537.50
2022-12-11T11:45:57.697Z,100541.34
2022-12-11T11:48:39.041Z,100537.59
2022-12-11T11:51:16.149Z,100543.56
2022-12-11T11:53:49.789Z,100538.16
2022-12-11T11:56:26.792Z,100546.41
2022-12-11T11:59:13.936Z,100538.22
2022-12-11T12:01:43.239Z,100543.31
2022-12-11T12:04:13.844Z,100544.25
2022-12-11T12:07:00.353Z,100549.09
2022-12-11T12:09:47.822Z,100546.88
2022-12-11T12:12:34.192Z,100548.28
2022-12-11T12:15:25.497Z,100543.88
2022-12-11T12:17:56.497Z,100534.31
2022-12-11T12:20:32.252Z,100536.47
2022-12-11T12:23:16.502Z,100531.25
2022-12-11T12:25:50.569Z,100527.16
2022-12-11T12:28:27.197Z,100528.44
2022-12-11T12:31:09.784Z,100523.38
2022-12-11T12:33:54.731Z,100519.25
2022-12-11T12:36:29.420Z,100520.84
2022-12-11T12:39:03.811Z,100509.19
2022-12-11T12:41:44.533Z,100512.84
2022-12-11T12:44:16.867Z,100515.53
2022-12-11T12:46:58.610Z,100518.97
2022-12-11T12:49:35.867Z,100508.41
2022-12-11T12:52:06.516Z,100514.84
2022-12-11T12:54:37.114Z,100506.34
2022-12-11T12:57:06.686Z,100509.41
2022-12-11T12:59:35.128Z,100502.28
2022-12-11T13:02:06.696Z,100503.22
2022-12-11T13:04:55.912Z,100504.00
2022-12-11T13:07:29.922Z,100512.91
2022-12-11T13:10:01.576Z,100506.38
2022-12-11T13:12:41.539Z,100511.56
2022-12-11T13:15:26.443Z,100503.44
2022-12-11T13:17:56.738Z,100500.94
2022-12-11T13:20:28.052Z,100502.88
2022-12-11T13:23:10.721Z,100508.97
2022-12-11T13:25:57.988Z,100508.38
2022-12-11T13:28:32.724Z,100504.91
2022-12-11T13:31:07.947Z,100510.94
2022-12-11T13:33:46.117Z,100512.78
2022-12-11T13:36:31.769Z,100515.38
2022-12-11T13:39:06.137Z,100518.13
2022-12-11T13:41:37.105Z,100520.28
2022-12-11T13:44:08.531Z,100512.75
2022-12-11T13:46:39.807Z,100510.16
2022-12-11T13:49:21.883Z,100523.28
2022-12-11T13:51:55.336Z,100522.56
2022-12-11T13:54:24.084Z,100524.06
2022-12-11T13:57:02.600Z,100522.41
2022-12-11T13:59:34.472Z,100515.16
2022-12-11T14:02:07.798Z,100521.22
2022-12-11T14:04:39.193Z,100521.09
2022-12-11T14:07:10.545Z,100523.59
2022-12-11T14:09:44.146Z,100530.28
2022-12-11T14:12:18.879Z,100526.56
2022-12-11T14:14:51.428Z,100522.97
2022-12-11T14:17:25.250Z,100524.41
2022-12-11T14:19:57.655Z,100522.97
2022-12-11T14:22:28.506Z,100528.88
2022-12-11T14:25:01.076Z,100531.50
2022-12-11T14:27:29.616Z,100537.59
2022-12-11T14:29:58.348Z,100542.13
2022-12-11T14:32:33.349Z,100532.25
2022-12-11T14:35:06.557Z,100530.53
2022-12-11T14:37:39.271Z,100538.03
2022-12-11T14:40:11.571Z,100537.97
2022-12-11T14:42:46.299Z,100544.75
2022-12-11T14:45:21.630Z,100541.22
2022-12-11T14:47:51.133Z,100554.28
2022-12-11T14:50:24.155Z,100551.88
2022-12-11T14:52:57.221Z,100556.31
2022-12-11T14:55:28.404Z,100554.31
2022-12-11T14:58:01.548Z,100561.38
2022-12-11T15:00:34.733Z,100556.91
2022-12-11T15:03:11.752Z,100555.19
2022-12-11T15:05:54.368Z,100554.84
2022-12-11T15:08:31.084Z,100554.78
2022-12-11T15:11:06.134Z,100554.16
2022-12-11T15:13:37.945Z,100562.44
2022-12-11T15:16:09.055Z,100560.97
2022-12-11T15:18:40.465Z,100561.09
2022-12-11T15:21:13.850Z,100563.56
2022-12-11T15:23:52.890Z,100568.50
2022-12-11T15:26:24.614Z,100565.13
2022-12-11T15:29:15.077Z,100567.72
2022-12-11T15:31:44.847Z,100563.47
2022-12-11T15:34:24.950Z,100567.75
2022-12-11T15:36:59.878Z,100566.34
2022-12-11T15:39:29.936Z,100563.03
2022-12-11T15:41:58.437Z,100563.09
2022-12-11T15:44:36.440Z,100570.75
2022-12-11T15:47:14.084Z,100568.31
2022-12-11T15:49:42.397Z,100569.94
2022-12-11T15:52:18.725Z,100567.44
2022-12-11T15:54:47.111Z,100557.84
2022-12-11T15:57:25.318Z,100557.91
2022-12-11T15:59:56.969Z,100557.84
2022-12-11T16:02:27.001Z,100559.66
2022-12-11T16:04:57.870Z,100563.22
2022-12-11T16:07:33.893Z,100553.69
2022-12-11T16:10:05.452Z,100560.63
2022-12-11T16:12:33.914Z,100567.47
2022-12-11T16:15:02.445Z,100563.22
2022-12-11T16:17:31.790Z,100552.78
2022-12-11T16:20:00.519Z,100559.91
2022-12-11T16:22:30.555Z,100550.00
2022-12-11T16:24:59.047Z,100563.84
2022-12-11T16:27:30.358Z,100550.06
2022-12-11T16:30:01.073Z,100550.91
2022-12-11T16:32:29.657Z,100545.59
2022-12-11T16:35:04.289Z,100542.88
2022-12-11T16:37:37.609Z,100540.44
2022-12-11T16:40:08.424Z,100538.56
2022-12-11T16:42:48.794Z,100538.47
2022-12-11T16:45:21.151Z,100548.91
2022-12-11T16:47:51.318Z,100541.09
2022-12-11T16:50:23.950Z,100552.28
2022-12-11T16:52:56.718Z,100550.72
2022-12-11T16:55:25.920Z,100551.91
2022-12-11T16:57:55.490Z,100550.69
2022-12-11T17:00:24.056Z,100562.91
2022-12-11T17:02:52.663Z,100562.41
2022-12-11T17:05:22.718Z,100561.22
2022-12-11T17:07:51.148Z,100567.03
2022-12-11T17:10:25.024Z,100574.75
2022-12-11T17:12:55.625Z,100569.53
2022-12-11T17:15:24.517Z,100562.56
2022-12-11T17:17:53.069Z,100567.88
2022-12-11T17:20:22.808Z,100571.44
2022-12-11T17:22:53.345Z,100559.66
2022-12-11T17:25:23.501Z,100571.28
2022-12-11T17:28:04.099Z,100563.72
2022-12-11T17:30:33.134Z,100561.13
2022-12-11T17:33:02.878Z,100563.03
2022-12-11T17:35:35.426Z,100559.50
2022-12-11T17:38:04.100Z,100565.22
2022-12-11T17:40:37.385Z,100563.53
2022-12-11T17:43:10.021Z,100567.84
2022-12-11T17:45:44.922Z,100564.19
2022-12-11T17:48:14.826Z,100556.34
2022-12-11T17:50:46.730Z,100563.31
2022-12-11T17:53:17.105Z,100558.94
2022-12-11T17:55:51.753Z,100561.66
2022-12-11T17:58:22.781Z,100555.47
2022-12-11T18:00:53.508Z,100552.00
2022-12-11T18:03:23.572Z,100557.31
2022-12-11T18:06:10.490Z,100560.81
2022-12-11T18:08:48.144Z,100562.25
2022-12-11T18:11:32.404Z,100563.06
2022-12-11T18:14:01.898Z,100564.63
2022-12-11T18:16:33.680Z,100569.78
2022-12-11T18:19:03.098Z,100570.72
2022-12-11T18:21:35.041Z,100566.25
2022-12-11T18:24:05.286Z,100565.69
2022-12-11T18:26:40.621Z,100570.16
2022-12-11T18:29:09.374Z,100570.09
2022-12-11T18:31:42.417Z,100576.41
2022-12-11T18:34:14.854Z,100577.41
2022-12-11T18:36:44.987Z,100576.56
2022-12-11T18:39:20.192Z,100566.47
2022-12-11T18:42:31.129Z,100572.97
2022-12-11T18:44:50.159Z,100573.00
2022-12-11T18:47:19.191Z,100577.00
2022-12-11T18:49:47.719Z,100579.53
2022-12-11T18:52:16.819Z,100578.72
2022-12-11T18:54:45.498Z,100565.03
2022-12-11T18:57:15.939Z,100569.44
2022-12-11T19:00:07.661Z,100565.13
2022-12-11T19:02:37.371Z,100564.88
2022-12-11T19:05:09.466Z,100564.50
2022-12-11T19:07:38.281Z,100561.56
2022-12-11T19:10:07.916Z,100567.44
2022-12-11T19:12:38.406Z,100563.88
2022-12-11T19:15:13.727Z,100572.28
2022-12-11T19:20:58.026Z,100579.75
2022-12-11T19:23:37.199Z,100588.31
2022-12-11T19:26:32.537Z,100584.03
2022-12-11T19:29:23.691Z,100588.50
2022-12-11T19:32:03.539Z,100588.28
2022-12-11T19:34:36.695Z,100589.16
2022-12-11T19:37:09.128Z,100599.56
2022-12-11T19:39:41.839Z,100594.19
2022-12-11T19:42:12.000Z,100592.41
2022-12-11T19:44:50.596Z,100601.72
2022-12-11T19:47:22.885Z,100604.47
2022-12-11T19:49:57.053Z,100601.16
2022-12-11T19:52:37.478Z,100594.88
2022-12-11T19:55:10.622Z,100592.22
2022-12-11T19:57:42.199Z,100592.84
2022-12-11T20:00:25.119Z,100594.50
2022-12-11T20:02:57.661Z,100589.25
2022-12-11T20:05:31.650Z,100594.22
2022-12-11T20:08:35.314Z,100594.53
2022-12-11T20:10:56.095Z,100597.09
2022-12-11T20:13:37.097Z,100596.06
2022-12-11T20:16:16.413Z,100591.97
2022-12-11T20:18:49.828Z,100595.47
2022-12-11T20:21:26.021Z,100590.22
2022-12-11T20:23:57.558Z,100592.69
2022-12-11T20:26:30.184Z,100596.69
2022-12-11T20:29:05.756Z,100599.59
2022-12-11T20:31:43.162Z,100593.00
2022-12-11T20:34:14.991Z,100595.56
2022-12-11T20:36:45.441Z,100601.81
2022-12-11T20:39:15.579Z,100603.56
2022-12-11T20:41:44.798Z,100603.69
2022-12-11T20:44:14.292Z,100600.22
2022-12-11T20:46:46.339Z,100596.84
2022-12-11T20:49:15.474Z,100600.28
2022-12-11T20:51:44.247Z,100603.81
2022-12-11T20:54:14.844Z,100612.53
2022-12-11T20:56:45.395Z,100606.75
2022-12-11T20:59:15.867Z,100599.00
2022-12-11T21:01:48.864Z,100603.38
2022-12-11T21:04:18.121Z,100604.75
2022-12-11T21:06:47.639Z,100608.84
2022-12-11T21:09:30.941Z,100605.34
2022-12-11T21:15:13.160Z,100609.47
2022-12-11T21:21:12.308Z,100613.56
2022-12-11T21:23:57.822Z,100612.66
2022-12-11T21:29:16.293Z,100615.16
2022-12-11T21:31:50.185Z,100612.31
2022-12-11T21:34:25.871Z,100611.53
2022-12-11T21:36:57.308Z,100608.19
2022-12-11T21:39:31.609Z,100609.19
2022-12-11T21:42:02.475Z,100606.53
2022-12-11T21:47:19.911Z,100605.56
2022-12-11T21:49:50.191Z,100604.69
2022-12-11T21:52:19.750Z,100600.31
2022-12-11T21:54:49.487Z,100595.88
2022-12-11T21:57:24.384Z,100608.13
2022-12-11T21:59:56.967Z,100601.00
2022-12-11T22:02:26.338Z,100598.41
2022-12-11T22:04:56.617Z,100602.91
2022-12-11T22:07:25.624Z,100606.34
2022-12-11T22:09:54.230Z,100612.19
2022-12-11T22:12:26.077Z,100616.38
2022-12-11T22:14:57.669Z,100611.13
2022-12-11T22:17:35.622Z,100612.88
2022-12-11T22:20:12.964Z,100618.91
2022-12-11T22:22:42.816Z,100621.78
2022-12-11T22:25:12.554Z,100615.47
2022-12-11T22:30:38.507Z,100611.81
2022-12-11T22:33:08.598Z,100622.28
2022-12-11T22:38:46.006Z,100621.78
2022-12-11T22:41:21.975Z,100618.31
2022-12-11T22:43:51.448Z,100623.47
2022-12-11T22:46:23.628Z,100628.53
2022-12-11T22:48:52.161Z,100626.25
2022-12-11T22:51:21.419Z,100618.44
2022-12-11T22:57:15.441Z,100613.97
2022-12-11T22:59:51.650Z,100621.66
2022-12-11T23:02:21.844Z,100616.34
2022-12-11T23:04:56.854Z,100611.13
2022-12-11T23:07:25.918Z,100602.94
2022-12-11T23:09:53.980Z,100617.03
2022-12-11T23:12:23.614Z,100610.13
2022-12-11T23:14:52.072Z,100608.44
2022-12-11T23:17:21.840Z,100606.63
2022-12-11T23:19:50.089Z,100610.19
2022-12-11T23:22:18.607Z,100612.78
2022-12-11T23:24:47.263Z,100614.47
2022-12-11T23:27:15.454Z,100610.84
2022-12-11T23:29:43.698Z,100612.63
2022-12-11T23:32:12.028Z,100615.16
2022-12-11T23:34:42.001Z,100615.91
2022-12-11T23:37:10.925Z,100621.22
2022-12-11T23:39:39.383Z,100618.59
2022-12-11T23:42:09.447Z,100618.59
2022-12-11T23:44:38.047Z,100616.81
2022-12-11T23:47:06.359Z,100616.81
2022-12-11T23:49:34.865Z,100612.44
2022-12-11T23:52:06.162Z,100608.06
